sensor_id;sensor_type;location;lat;lon;timestamp;temperature;humidity
70366;DHT22;57787;48.216;12.396;2023-03-01T00:00:10;2.00;67.70
70366;DHT22;57787;48.216;12.396;2023-03-01T00:02:41;2.00;67.80
70366;DHT22;57787;48.216;12.396;2023-03-01T00:05:08;1.90;67.80
70366;DHT22;57787;48.216;12.396;2023-03-01T00:07:35;2.00;67.80
70366;DHT22;57787;48.216;12.396;2023-03-01T00:10:02;1.90;67.90
70366;DHT22;57787;48.216;12.396;2023-03-01T00:12:30;1.90;68.00
70366;DHT22;57787;48.216;12.396;2023-03-01T00:14:59;1.90;68.50
70366;DHT22;57787;48.216;12.396;2023-03-01T00:17:27;1.90;68.40
70366;DHT22;57787;48.216;12.396;2023-03-01T00:19:53;1.90;68.00
70366;DHT22;57787;48.216;12.396;2023-03-01T00:22:21;1.90;68.10
70366;DHT22;57787;48.216;12.396;2023-03-01T00:24:50;1.90;68.30
70366;DHT22;57787;48.216;12.396;2023-03-01T00:27:17;1.90;68.40
70366;DHT22;57787;48.216;12.396;2023-03-01T00:29:44;1.90;67.80
70366;DHT22;57787;48.216;12.396;2023-03-01T00:32:11;1.90;67.80
70366;DHT22;57787;48.216;12.396;2023-03-01T00:34:38;1.80;67.80
70366;DHT22;57787;48.216;12.396;2023-03-01T00:37:05;1.80;67.90
70366;DHT22;57787;48.216;12.396;2023-03-01T00:39:32;1.80;67.70
70366;DHT22;57787;48.216;12.396;2023-03-01T00:42:00;1.80;67.80
70366;DHT22;57787;48.216;12.396;2023-03-01T00:44:28;1.80;68.00
70366;DHT22;57787;48.216;12.396;2023-03-01T00:46:55;1.80;68.00
70366;DHT22;57787;48.216;12.396;2023-03-01T00:49:25;1.80;67.70
70366;DHT22;57787;48.216;12.396;2023-03-01T00:51:54;1.80;68.50
70366;DHT22;57787;48.216;12.396;2023-03-01T00:54:21;1.80;68.20
70366;DHT22;57787;48.216;12.396;2023-03-01T00:56:48;1.70;68.10
70366;DHT22;57787;48.216;12.396;2023-03-01T00:59:18;1.70;68.20
70366;DHT22;57787;48.216;12.396;2023-03-01T01:01:44;1.70;67.70
70366;DHT22;57787;48.216;12.396;2023-03-01T01:04:12;1.60;67.80
70366;DHT22;57787;48.216;12.396;2023-03-01T01:06:43;1.60;68.30
70366;DHT22;57787;48.216;12.396;2023-03-01T01:09:15;1.60;68.30
70366;DHT22;57787;48.216;12.396;2023-03-01T01:11:46;1.60;68.40
70366;DHT22;57787;48.216;12.396;2023-03-01T01:14:13;1.60;68.40
70366;DHT22;57787;48.216;12.396;2023-03-01T01:16:40;1.60;68.50
70366;DHT22;57787;48.216;12.396;2023-03-01T01:19:07;1.60;68.50
70366;DHT22;57787;48.216;12.396;2023-03-01T01:21:36;1.50;68.50
70366;DHT22;57787;48.216;12.396;2023-03-01T01:24:04;1.50;68.30
70366;DHT22;57787;48.216;12.396;2023-03-01T01:26:32;1.50;68.40
70366;DHT22;57787;48.216;12.396;2023-03-01T01:28:59;1.50;68.80
70366;DHT22;57787;48.216;12.396;2023-03-01T01:31:27;1.40;68.50
70366;DHT22;57787;48.216;12.396;2023-03-01T01:33:55;1.50;68.50
70366;DHT22;57787;48.216;12.396;2023-03-01T01:36:22;1.40;68.20
70366;DHT22;57787;48.216;12.396;2023-03-01T01:38:49;1.40;68.70
70366;DHT22;57787;48.216;12.396;2023-03-01T01:41:17;1.40;68.90
70366;DHT22;57787;48.216;12.396;2023-03-01T01:43:45;1.30;69.10
70366;DHT22;57787;48.216;12.396;2023-03-01T01:49:00;1.30;68.90
70366;DHT22;57787;48.216;12.396;2023-03-01T01:51:29;1.20;69.00
70366;DHT22;57787;48.216;12.396;2023-03-01T01:54:15;1.20;69.20
70366;DHT22;57787;48.216;12.396;2023-03-01T01:56:44;1.10;69.40
70366;DHT22;57787;48.216;12.396;2023-03-01T01:59:13;1.00;69.40
70366;DHT22;57787;48.216;12.396;2023-03-01T02:04:16;0.90;69.60
70366;DHT22;57787;48.216;12.396;2023-03-01T02:06:54;0.80;70.10
70366;DHT22;57787;48.216;12.396;2023-03-01T02:09:26;0.70;70.40
70366;DHT22;57787;48.216;12.396;2023-03-01T02:11:53;0.70;70.40
70366;DHT22;57787;48.216;12.396;2023-03-01T02:14:23;0.60;70.90
70366;DHT22;57787;48.216;12.396;2023-03-01T02:16:50;0.50;70.90
70366;DHT22;57787;48.216;12.396;2023-03-01T02:19:24;0.50;71.10
70366;DHT22;57787;48.216;12.396;2023-03-01T02:27:10;0.30;71.60
70366;DHT22;57787;48.216;12.396;2023-03-01T02:29:38;0.20;71.70
70366;DHT22;57787;48.216;12.396;2023-03-01T02:32:07;0.10;72.10
70366;DHT22;57787;48.216;12.396;2023-03-01T02:34:34;0.10;72.40
70366;DHT22;57787;48.216;12.396;2023-03-01T02:37:05;0.00;72.60
70366;DHT22;57787;48.216;12.396;2023-03-01T02:39:42;0.00;73.00
70366;DHT22;57787;48.216;12.396;2023-03-01T02:42:11;-0.10;73.50
70366;DHT22;57787;48.216;12.396;2023-03-01T02:44:40;-0.10;73.50
70366;DHT22;57787;48.216;12.396;2023-03-01T02:47:07;-0.20;73.60
70366;DHT22;57787;48.216;12.396;2023-03-01T02:49:35;-0.30;73.90
70366;DHT22;57787;48.216;12.396;2023-03-01T02:57:29;-0.40;74.70
70366;DHT22;57787;48.216;12.396;2023-03-01T02:59:58;-0.50;75.10
70366;DHT22;57787;48.216;12.396;2023-03-01T03:02:27;-0.50;75.40
70366;DHT22;57787;48.216;12.396;2023-03-01T03:05:08;-0.50;75.30
70366;DHT22;57787;48.216;12.396;2023-03-01T03:07:37;-0.60;75.50
70366;DHT22;57787;48.216;12.396;2023-03-01T03:10:06;-0.60;75.80
70366;DHT22;57787;48.216;12.396;2023-03-01T03:12:33;-0.70;75.80
70366;DHT22;57787;48.216;12.396;2023-03-01T03:15:00;-0.70;75.80
70366;DHT22;57787;48.216;12.396;2023-03-01T03:17:27;-0.70;75.70
70366;DHT22;57787;48.216;12.396;2023-03-01T03:19:54;-0.70;76.20
70366;DHT22;57787;48.216;12.396;2023-03-01T03:22:21;-0.70;76.50
70366;DHT22;57787;48.216;12.396;2023-03-01T03:24:48;-0.80;76.60
70366;DHT22;57787;48.216;12.396;2023-03-01T03:27:16;-0.80;76.60
70366;DHT22;57787;48.216;12.396;2023-03-01T03:29:43;-0.80;76.40
70366;DHT22;57787;48.216;12.396;2023-03-01T03:32:10;-0.90;76.70
70366;DHT22;57787;48.216;12.396;2023-03-01T03:34:39;-0.90;76.80
70366;DHT22;57787;48.216;12.396;2023-03-01T03:37:06;-0.90;76.70
70366;DHT22;57787;48.216;12.396;2023-03-01T03:39:53;-0.90;76.90
70366;DHT22;57787;48.216;12.396;2023-03-01T03:42:21;-0.90;76.90
70366;DHT22;57787;48.216;12.396;2023-03-01T03:44:50;-0.90;76.90
70366;DHT22;57787;48.216;12.396;2023-03-01T03:47:17;-0.90;76.90
70366;DHT22;57787;48.216;12.396;2023-03-01T03:49:44;-0.90;76.80
70366;DHT22;57787;48.216;12.396;2023-03-01T03:52:10;-1.00;76.90
70366;DHT22;57787;48.216;12.396;2023-03-01T03:54:42;-1.00;77.00
70366;DHT22;57787;48.216;12.396;2023-03-01T03:57:09;-1.00;77.20
70366;DHT22;57787;48.216;12.396;2023-03-01T03:59:36;-1.00;77.50
70366;DHT22;57787;48.216;12.396;2023-03-01T04:02:06;-1.10;77.00
70366;DHT22;57787;48.216;12.396;2023-03-01T04:04:35;-1.10;77.20
70366;DHT22;57787;48.216;12.396;2023-03-01T04:07:02;-1.20;77.20
70366;DHT22;57787;48.216;12.396;2023-03-01T04:09:28;-1.20;77.50
70366;DHT22;57787;48.216;12.396;2023-03-01T04:11:58;-1.20;77.50
70366;DHT22;57787;48.216;12.396;2023-03-01T04:14:25;-1.20;77.80
70366;DHT22;57787;48.216;12.396;2023-03-01T04:16:51;-1.30;77.90
70366;DHT22;57787;48.216;12.396;2023-03-01T04:19:18;-1.30;77.80
70366;DHT22;57787;48.216;12.396;2023-03-01T04:21:45;-1.30;77.80
70366;DHT22;57787;48.216;12.396;2023-03-01T04:24:13;-1.30;78.00
70366;DHT22;57787;48.216;12.396;2023-03-01T04:26:40;-1.30;78.10
70366;DHT22;57787;48.216;12.396;2023-03-01T04:29:07;-1.30;78.10
70366;DHT22;57787;48.216;12.396;2023-03-01T04:31:35;-1.30;78.10
70366;DHT22;57787;48.216;12.396;2023-03-01T04:34:02;-1.40;77.90
70366;DHT22;57787;48.216;12.396;2023-03-01T04:36:29;-1.40;77.90
70366;DHT22;57787;48.216;12.396;2023-03-01T04:38:57;-1.40;78.00
70366;DHT22;57787;48.216;12.396;2023-03-01T04:41:24;-1.40;78.00
70366;DHT22;57787;48.216;12.396;2023-03-01T04:43:51;-1.50;78.40
70366;DHT22;57787;48.216;12.396;2023-03-01T04:46:19;-1.40;78.40
70366;DHT22;57787;48.216;12.396;2023-03-01T04:48:46;-1.50;78.40
70366;DHT22;57787;48.216;12.396;2023-03-01T04:51:13;-1.50;78.40
70366;DHT22;57787;48.216;12.396;2023-03-01T04:53:41;-1.50;78.30
70366;DHT22;57787;48.216;12.396;2023-03-01T04:56:08;-1.50;78.60
70366;DHT22;57787;48.216;12.396;2023-03-01T04:58:36;-1.50;78.30
70366;DHT22;57787;48.216;12.396;2023-03-01T05:01:08;-1.50;78.70
70366;DHT22;57787;48.216;12.396;2023-03-01T05:03:46;-1.40;78.70
70366;DHT22;57787;48.216;12.396;2023-03-01T05:06:13;-1.30;78.50
70366;DHT22;57787;48.216;12.396;2023-03-01T05:08:40;-1.30;78.40
70366;DHT22;57787;48.216;12.396;2023-03-01T05:11:07;-1.20;78.20
70366;DHT22;57787;48.216;12.396;2023-03-01T05:13:37;-1.10;78.20
70366;DHT22;57787;48.216;12.396;2023-03-01T05:16:05;-1.10;77.90
70366;DHT22;57787;48.216;12.396;2023-03-01T05:18:32;-1.00;77.70
70366;DHT22;57787;48.216;12.396;2023-03-01T05:21:06;-1.00;77.70
70366;DHT22;57787;48.216;12.396;2023-03-01T05:23:34;-0.90;77.50
70366;DHT22;57787;48.216;12.396;2023-03-01T05:26:01;-0.90;77.10
70366;DHT22;57787;48.216;12.396;2023-03-01T05:28:29;-0.90;76.90
70366;DHT22;57787;48.216;12.396;2023-03-01T05:30:56;-0.80;76.70
70366;DHT22;57787;48.216;12.396;2023-03-01T05:33:24;-0.80;76.60
70366;DHT22;57787;48.216;12.396;2023-03-01T05:35:51;-0.70;76.60
70366;DHT22;57787;48.216;12.396;2023-03-01T05:38:21;-0.70;76.90
70366;DHT22;57787;48.216;12.396;2023-03-01T05:40:48;-0.70;76.50
70366;DHT22;57787;48.216;12.396;2023-03-01T05:43:15;-0.70;76.20
70366;DHT22;57787;48.216;12.396;2023-03-01T05:45:42;-0.70;76.00
70366;DHT22;57787;48.216;12.396;2023-03-01T05:48:09;-0.60;76.30
70366;DHT22;57787;48.216;12.396;2023-03-01T05:50:39;-0.60;76.00
70366;DHT22;57787;48.216;12.396;2023-03-01T05:53:07;-0.60;76.10
70366;DHT22;57787;48.216;12.396;2023-03-01T05:55:34;-0.60;76.00
70366;DHT22;57787;48.216;12.396;2023-03-01T05:58:04;-0.60;75.50
70366;DHT22;57787;48.216;12.396;2023-03-01T06:00:31;-0.60;75.60
70366;DHT22;57787;48.216;12.396;2023-03-01T06:02:58;-0.60;75.40
70366;DHT22;57787;48.216;12.396;2023-03-01T06:05:25;-0.60;75.50
70366;DHT22;57787;48.216;12.396;2023-03-01T06:07:52;-0.60;75.30
70366;DHT22;57787;48.216;12.396;2023-03-01T06:10:20;-0.60;75.20
70366;DHT22;57787;48.216;12.396;2023-03-01T06:12:47;-0.70;75.40
70366;DHT22;57787;48.216;12.396;2023-03-01T06:15:15;-0.70;75.70
70366;DHT22;57787;48.216;12.396;2023-03-01T06:17:43;-0.70;75.50
70366;DHT22;57787;48.216;12.396;2023-03-01T06:20:11;-0.80;75.50
70366;DHT22;57787;48.216;12.396;2023-03-01T06:22:38;-0.80;75.80
70366;DHT22;57787;48.216;12.396;2023-03-01T06:25:05;-0.90;75.70
70366;DHT22;57787;48.216;12.396;2023-03-01T06:27:32;-0.90;75.90
70366;DHT22;57787;48.216;12.396;2023-03-01T06:29:59;-0.90;76.00
70366;DHT22;57787;48.216;12.396;2023-03-01T06:32:25;-0.90;75.80
70366;DHT22;57787;48.216;12.396;2023-03-01T06:34:53;-0.90;76.10
70366;DHT22;57787;48.216;12.396;2023-03-01T06:37:19;-0.90;76.20
70366;DHT22;57787;48.216;12.396;2023-03-01T06:39:49;-0.90;75.90
70366;DHT22;57787;48.216;12.396;2023-03-01T06:42:16;-0.90;75.70
70366;DHT22;57787;48.216;12.396;2023-03-01T06:44:43;-0.90;75.80
70366;DHT22;57787;48.216;12.396;2023-03-01T06:47:10;-0.90;76.00
70366;DHT22;57787;48.216;12.396;2023-03-01T06:49:38;-0.80;76.00
70366;DHT22;57787;48.216;12.396;2023-03-01T06:52:05;-0.80;75.80
70366;DHT22;57787;48.216;12.396;2023-03-01T06:54:32;-0.70;75.70
70366;DHT22;57787;48.216;12.396;2023-03-01T06:56:59;-0.70;75.90
70366;DHT22;57787;48.216;12.396;2023-03-01T06:59:26;-0.70;75.40
70366;DHT22;57787;48.216;12.396;2023-03-01T07:01:52;-0.60;75.50
70366;DHT22;57787;48.216;12.396;2023-03-01T07:04:19;-0.60;75.10
70366;DHT22;57787;48.216;12.396;2023-03-01T07:06:46;-0.50;74.90
70366;DHT22;57787;48.216;12.396;2023-03-01T07:09:21;-0.50;74.60
70366;DHT22;57787;48.216;12.396;2023-03-01T07:11:48;-0.40;74.40
70366;DHT22;57787;48.216;12.396;2023-03-01T07:14:15;-0.30;74.40
70366;DHT22;57787;48.216;12.396;2023-03-01T07:16:42;-0.30;73.90
70366;DHT22;57787;48.216;12.396;2023-03-01T07:19:09;-0.20;74.00
70366;DHT22;57787;48.216;12.396;2023-03-01T07:21:36;-0.10;73.60
70366;DHT22;57787;48.216;12.396;2023-03-01T07:24:06;-0.10;73.20
70366;DHT22;57787;48.216;12.396;2023-03-01T07:26:33;0.00;73.10
70366;DHT22;57787;48.216;12.396;2023-03-01T07:29:04;0.00;72.70
70366;DHT22;57787;48.216;12.396;2023-03-01T07:31:33;0.10;72.60
70366;DHT22;57787;48.216;12.396;2023-03-01T07:34:01;0.20;71.80
70366;DHT22;57787;48.216;12.396;2023-03-01T07:36:28;0.30;71.80
70366;DHT22;57787;48.216;12.396;2023-03-01T07:38:56;0.30;71.10
70366;DHT22;57787;48.216;12.396;2023-03-01T07:41:24;0.40;70.30
70366;DHT22;57787;48.216;12.396;2023-03-01T07:43:51;0.50;70.50
70366;DHT22;57787;48.216;12.396;2023-03-01T07:46:18;0.60;69.80
70366;DHT22;57787;48.216;12.396;2023-03-01T07:48:45;0.70;69.70
70366;DHT22;57787;48.216;12.396;2023-03-01T07:51:13;0.80;69.50
70366;DHT22;57787;48.216;12.396;2023-03-01T07:53:40;0.90;68.60
70366;DHT22;57787;48.216;12.396;2023-03-01T07:56:08;1.00;68.90
70366;DHT22;57787;48.216;12.396;2023-03-01T07:58:36;1.10;69.00
70366;DHT22;57787;48.216;12.396;2023-03-01T08:01:03;1.20;67.80
70366;DHT22;57787;48.216;12.396;2023-03-01T08:03:30;1.30;67.70
70366;DHT22;57787;48.216;12.396;2023-03-01T08:06:01;1.30;66.90
70366;DHT22;57787;48.216;12.396;2023-03-01T08:08:28;1.40;66.80
70366;DHT22;57787;48.216;12.396;2023-03-01T08:10:59;1.50;65.80
70366;DHT22;57787;48.216;12.396;2023-03-01T08:13:27;1.60;66.80
70366;DHT22;57787;48.216;12.396;2023-03-01T08:15:54;1.80;66.50
70366;DHT22;57787;48.216;12.396;2023-03-01T08:18:22;1.80;65.80
70366;DHT22;57787;48.216;12.396;2023-03-01T08:20:49;1.90;65.90
70366;DHT22;57787;48.216;12.396;2023-03-01T08:23:16;2.00;65.20
70366;DHT22;57787;48.216;12.396;2023-03-01T08:25:43;2.20;65.40
70366;DHT22;57787;48.216;12.396;2023-03-01T08:28:10;2.20;65.10
70366;DHT22;57787;48.216;12.396;2023-03-01T08:30:36;2.30;64.70
70366;DHT22;57787;48.216;12.396;2023-03-01T08:33:05;2.40;64.30
70366;DHT22;57787;48.216;12.396;2023-03-01T08:35:32;2.40;62.80
70366;DHT22;57787;48.216;12.396;2023-03-01T08:37:58;2.40;63.60
70366;DHT22;57787;48.216;12.396;2023-03-01T08:40:25;2.40;62.60
70366;DHT22;57787;48.216;12.396;2023-03-01T08:42:52;2.50;62.80
70366;DHT22;57787;48.216;12.396;2023-03-01T08:45:19;2.50;62.40
70366;DHT22;57787;48.216;12.396;2023-03-01T08:47:46;2.50;63.40
70366;DHT22;57787;48.216;12.396;2023-03-01T08:50:12;2.60;62.60
70366;DHT22;57787;48.216;12.396;2023-03-01T08:52:40;2.70;62.80
70366;DHT22;57787;48.216;12.396;2023-03-01T08:55:07;2.80;62.00
70366;DHT22;57787;48.216;12.396;2023-03-01T08:57:34;2.90;61.20
70366;DHT22;57787;48.216;12.396;2023-03-01T09:00:00;2.90;61.30
70366;DHT22;57787;48.216;12.396;2023-03-01T09:02:27;2.90;61.60
70366;DHT22;57787;48.216;12.396;2023-03-01T09:04:55;3.10;61.40
70366;DHT22;57787;48.216;12.396;2023-03-01T09:07:21;3.00;61.20
70366;DHT22;57787;48.216;12.396;2023-03-01T09:09:48;3.10;61.10
70366;DHT22;57787;48.216;12.396;2023-03-01T09:12:15;3.20;60.80
70366;DHT22;57787;48.216;12.396;2023-03-01T09:14:42;3.20;59.90
70366;DHT22;57787;48.216;12.396;2023-03-01T09:17:08;3.30;60.10
70366;DHT22;57787;48.216;12.396;2023-03-01T09:19:35;3.40;60.60
70366;DHT22;57787;48.216;12.396;2023-03-01T09:22:03;3.40;60.50
70366;DHT22;57787;48.216;12.396;2023-03-01T09:24:29;3.50;60.00
70366;DHT22;57787;48.216;12.396;2023-03-01T09:26:56;3.60;59.90
70366;DHT22;57787;48.216;12.396;2023-03-01T09:29:23;3.60;59.70
70366;DHT22;57787;48.216;12.396;2023-03-01T09:31:50;3.60;59.20
70366;DHT22;57787;48.216;12.396;2023-03-01T09:34:17;3.70;59.10
70366;DHT22;57787;48.216;12.396;2023-03-01T09:36:50;3.80;59.90
70366;DHT22;57787;48.216;12.396;2023-03-01T09:39:17;3.80;59.60
70366;DHT22;57787;48.216;12.396;2023-03-01T09:41:46;4.00;60.10
70366;DHT22;57787;48.216;12.396;2023-03-01T09:44:27;4.20;59.30
70366;DHT22;57787;48.216;12.396;2023-03-01T09:46:56;4.30;58.10
70366;DHT22;57787;48.216;12.396;2023-03-01T09:49:25;4.50;58.70
70366;DHT22;57787;48.216;12.396;2023-03-01T09:51:56;4.50;57.20
70366;DHT22;57787;48.216;12.396;2023-03-01T09:54:23;4.50;56.90
70366;DHT22;57787;48.216;12.396;2023-03-01T09:56:57;4.50;58.00
70366;DHT22;57787;48.216;12.396;2023-03-01T10:02:21;4.30;57.00
70366;DHT22;57787;48.216;12.396;2023-03-01T10:05:03;4.20;58.30
70366;DHT22;57787;48.216;12.396;2023-03-01T10:07:50;4.20;58.40
70366;DHT22;57787;48.216;12.396;2023-03-01T10:12:51;4.10;57.70
70366;DHT22;57787;48.216;12.396;2023-03-01T10:15:25;4.20;58.50
70366;DHT22;57787;48.216;12.396;2023-03-01T10:18:01;4.20;58.00
70366;DHT22;57787;48.216;12.396;2023-03-01T10:23:15;4.00;57.90
70366;DHT22;57787;48.216;12.396;2023-03-01T10:25:44;4.10;58.70
70366;DHT22;57787;48.216;12.396;2023-03-01T10:28:24;4.10;58.70
70366;DHT22;57787;48.216;12.396;2023-03-01T10:30:51;4.20;58.30
70366;DHT22;57787;48.216;12.396;2023-03-01T10:35:51;4.30;58.00
70366;DHT22;57787;48.216;12.396;2023-03-01T10:38:18;4.30;58.30
70366;DHT22;57787;48.216;12.396;2023-03-01T10:40:51;4.40;58.10
70366;DHT22;57787;48.216;12.396;2023-03-01T10:43:18;4.50;58.60
70366;DHT22;57787;48.216;12.396;2023-03-01T10:45:45;4.60;57.60
70366;DHT22;57787;48.216;12.396;2023-03-01T10:50:40;4.60;59.00
70366;DHT22;57787;48.216;12.396;2023-03-01T10:53:18;4.70;58.80
70366;DHT22;57787;48.216;12.396;2023-03-01T10:55:46;4.90;59.20
70366;DHT22;57787;48.216;12.396;2023-03-01T10:58:21;5.00;57.40
70366;DHT22;57787;48.216;12.396;2023-03-01T11:00:53;4.90;56.90
70366;DHT22;57787;48.216;12.396;2023-03-01T11:03:27;4.90;58.70
70366;DHT22;57787;48.216;12.396;2023-03-01T11:08:32;5.20;58.10
70366;DHT22;57787;48.216;12.396;2023-03-01T11:11:20;5.40;58.70
70366;DHT22;57787;48.216;12.396;2023-03-01T11:19:18;5.40;56.90
70366;DHT22;57787;48.216;12.396;2023-03-01T11:22:05;5.60;57.90
70366;DHT22;57787;48.216;12.396;2023-03-01T11:24:47;5.70;57.10
70366;DHT22;57787;48.216;12.396;2023-03-01T11:27:31;5.90;57.30
70366;DHT22;57787;48.216;12.396;2023-03-01T11:30:07;5.90;55.50
70366;DHT22;57787;48.216;12.396;2023-03-01T11:32:40;6.00;56.10
70366;DHT22;57787;48.216;12.396;2023-03-01T11:35:19;6.10;55.50
70366;DHT22;57787;48.216;12.396;2023-03-01T11:37:56;6.10;55.20
70366;DHT22;57787;48.216;12.396;2023-03-01T11:40:27;6.10;55.80
70366;DHT22;57787;48.216;12.396;2023-03-01T11:42:59;6.20;55.60
70366;DHT22;57787;48.216;12.396;2023-03-01T11:45:29;6.20;56.50
70366;DHT22;57787;48.216;12.396;2023-03-01T11:48:03;6.30;55.30
70366;DHT22;57787;48.216;12.396;2023-03-01T11:50:39;6.20;54.90
70366;DHT22;57787;48.216;12.396;2023-03-01T11:53:17;6.20;55.50
70366;DHT22;57787;48.216;12.396;2023-03-01T11:56:03;6.20;55.60
70366;DHT22;57787;48.216;12.396;2023-03-01T11:58:45;6.20;55.80
70366;DHT22;57787;48.216;12.396;2023-03-01T12:09:27;6.60;55.00
70366;DHT22;57787;48.216;12.396;2023-03-01T12:14:40;6.60;54.50
70366;DHT22;57787;48.216;12.396;2023-03-01T12:17:32;6.60;55.00
70366;DHT22;57787;48.216;12.396;2023-03-01T12:20:17;6.60;54.60
70366;DHT22;57787;48.216;12.396;2023-03-01T12:22:53;6.70;54.50
70366;DHT22;57787;48.216;12.396;2023-03-01T12:25:25;6.90;55.20
70366;DHT22;57787;48.216;12.396;2023-03-01T12:30:26;7.10;55.80
70366;DHT22;57787;48.216;12.396;2023-03-01T12:35:26;7.30;54.40
70366;DHT22;57787;48.216;12.396;2023-03-01T12:38:05;7.20;53.80
70366;DHT22;57787;48.216;12.396;2023-03-01T12:48:47;7.60;55.10
70366;DHT22;57787;48.216;12.396;2023-03-01T12:51:19;7.70;54.60
70366;DHT22;57787;48.216;12.396;2023-03-01T12:53:47;7.80;55.30
70366;DHT22;57787;48.216;12.396;2023-03-01T12:56:18;7.80;54.20
70366;DHT22;57787;48.216;12.396;2023-03-01T13:01:31;7.90;55.20
70366;DHT22;57787;48.216;12.396;2023-03-01T13:04:12;8.00;54.10
70366;DHT22;57787;48.216;12.396;2023-03-01T13:12:01;8.20;53.70
70366;DHT22;57787;48.216;12.396;2023-03-01T13:14:36;8.20;53.30
70366;DHT22;57787;48.216;12.396;2023-03-01T13:17:04;8.30;54.40
70366;DHT22;57787;48.216;12.396;2023-03-01T13:19:31;8.30;53.20
70366;DHT22;57787;48.216;12.396;2023-03-01T13:22:00;8.30;53.20
70366;DHT22;57787;48.216;12.396;2023-03-01T13:24:47;8.30;52.80
70366;DHT22;57787;48.216;12.396;2023-03-01T13:29:47;8.30;53.20
70366;DHT22;57787;48.216;12.396;2023-03-01T13:32:27;8.30;52.70
70366;DHT22;57787;48.216;12.396;2023-03-01T13:37:44;8.20;54.20
70366;DHT22;57787;48.216;12.396;2023-03-01T13:42:47;8.30;53.50
70366;DHT22;57787;48.216;12.396;2023-03-01T13:45:40;8.30;53.20
70366;DHT22;57787;48.216;12.396;2023-03-01T13:48:09;8.30;53.30
70366;DHT22;57787;48.216;12.396;2023-03-01T13:50:38;8.30;53.40
70366;DHT22;57787;48.216;12.396;2023-03-01T13:53:10;8.30;53.20
70366;DHT22;57787;48.216;12.396;2023-03-01T13:55:41;8.30;53.40
70366;DHT22;57787;48.216;12.396;2023-03-01T13:58:29;8.30;53.70
70366;DHT22;57787;48.216;12.396;2023-03-01T14:03:24;8.30;54.00
70366;DHT22;57787;48.216;12.396;2023-03-01T14:08:39;8.20;54.20
70366;DHT22;57787;48.216;12.396;2023-03-01T14:11:31;8.30;54.10
70366;DHT22;57787;48.216;12.396;2023-03-01T14:19:19;8.30;54.30
70366;DHT22;57787;48.216;12.396;2023-03-01T14:22:04;8.40;55.00
70366;DHT22;57787;48.216;12.396;2023-03-01T14:24:33;8.50;54.70
70366;DHT22;57787;48.216;12.396;2023-03-01T14:27:03;8.50;54.20
70366;DHT22;57787;48.216;12.396;2023-03-01T14:29:35;8.50;54.90
70366;DHT22;57787;48.216;12.396;2023-03-01T14:32:10;8.50;54.50
70366;DHT22;57787;48.216;12.396;2023-03-01T14:34:42;8.50;54.70
70366;DHT22;57787;48.216;12.396;2023-03-01T14:39:48;8.60;55.20
70366;DHT22;57787;48.216;12.396;2023-03-01T14:42:15;8.60;54.50
70366;DHT22;57787;48.216;12.396;2023-03-01T14:44:48;8.60;55.30
70366;DHT22;57787;48.216;12.396;2023-03-01T14:47:29;8.70;55.00
70366;DHT22;57787;48.216;12.396;2023-03-01T14:50:43;8.70;54.90
70366;DHT22;57787;48.216;12.396;2023-03-01T14:52:45;8.70;55.70
70366;DHT22;57787;48.216;12.396;2023-03-01T14:55:16;8.70;55.60
70366;DHT22;57787;48.216;12.396;2023-03-01T14:57:46;8.80;55.50
70366;DHT22;57787;48.216;12.396;2023-03-01T15:02:43;8.80;55.30
70366;DHT22;57787;48.216;12.396;2023-03-01T15:05:13;8.80;55.50
70366;DHT22;57787;48.216;12.396;2023-03-01T15:07:41;8.80;55.60
70366;DHT22;57787;48.216;12.396;2023-03-01T15:10:14;8.80;56.00
70366;DHT22;57787;48.216;12.396;2023-03-01T15:12:44;8.80;55.60
70366;DHT22;57787;48.216;12.396;2023-03-01T15:17:59;8.70;55.80
70366;DHT22;57787;48.216;12.396;2023-03-01T15:20:27;8.60;55.50
70366;DHT22;57787;48.216;12.396;2023-03-01T15:22:55;8.60;55.80
70366;DHT22;57787;48.216;12.396;2023-03-01T15:25:24;8.50;55.80
70366;DHT22;57787;48.216;12.396;2023-03-01T15:27:52;8.50;56.30
70366;DHT22;57787;48.216;12.396;2023-03-01T15:32:46;8.40;57.30
70366;DHT22;57787;48.216;12.396;2023-03-01T15:37:58;8.40;57.60
70366;DHT22;57787;48.216;12.396;2023-03-01T15:40:29;8.30;57.90
70366;DHT22;57787;48.216;12.396;2023-03-01T15:43:00;8.30;58.10
70366;DHT22;57787;48.216;12.396;2023-03-01T15:45:28;8.30;57.70
70366;DHT22;57787;48.216;12.396;2023-03-01T15:47:56;8.30;58.00
70366;DHT22;57787;48.216;12.396;2023-03-01T15:50:28;8.30;58.00
70366;DHT22;57787;48.216;12.396;2023-03-01T15:52:56;8.20;58.10
70366;DHT22;57787;48.216;12.396;2023-03-01T15:55:29;8.10;57.90
70366;DHT22;57787;48.216;12.396;2023-03-01T15:58:00;8.10;58.30
70366;DHT22;57787;48.216;12.396;2023-03-01T16:00:27;8.00;58.80
70366;DHT22;57787;48.216;12.396;2023-03-01T16:02:54;8.00;58.60
70366;DHT22;57787;48.216;12.396;2023-03-01T16:05:26;7.90;59.00
70366;DHT22;57787;48.216;12.396;2023-03-01T16:07:53;7.90;58.90
70366;DHT22;57787;48.216;12.396;2023-03-01T16:10:21;7.90;59.00
70366;DHT22;57787;48.216;12.396;2023-03-01T16:12:48;7.80;59.40
70366;DHT22;57787;48.216;12.396;2023-03-01T16:15:17;7.80;59.40
70366;DHT22;57787;48.216;12.396;2023-03-01T16:17:45;7.70;59.90
70366;DHT22;57787;48.216;12.396;2023-03-01T16:20:12;7.60;60.10
70366;DHT22;57787;48.216;12.396;2023-03-01T16:22:53;7.60;60.40
70366;DHT22;57787;48.216;12.396;2023-03-01T16:25:21;7.50;60.50
70366;DHT22;57787;48.216;12.396;2023-03-01T16:27:48;7.50;60.70
70366;DHT22;57787;48.216;12.396;2023-03-01T16:30:17;7.40;61.10
70366;DHT22;57787;48.216;12.396;2023-03-01T16:32:45;7.30;61.20
70366;DHT22;57787;48.216;12.396;2023-03-01T16:35:12;7.30;61.40
70366;DHT22;57787;48.216;12.396;2023-03-01T16:37:41;7.20;61.60
70366;DHT22;57787;48.216;12.396;2023-03-01T16:40:15;7.20;61.80
70366;DHT22;57787;48.216;12.396;2023-03-01T16:42:42;7.20;62.10
70366;DHT22;57787;48.216;12.396;2023-03-01T16:45:09;7.10;62.20
70366;DHT22;57787;48.216;12.396;2023-03-01T16:47:49;7.10;62.30
70366;DHT22;57787;48.216;12.396;2023-03-01T16:50:17;7.00;62.60
70366;DHT22;57787;48.216;12.396;2023-03-01T16:52:44;6.90;62.70
70366;DHT22;57787;48.216;12.396;2023-03-01T16:55:11;6.90;62.80
70366;DHT22;57787;48.216;12.396;2023-03-01T16:57:38;6.80;63.00
70366;DHT22;57787;48.216;12.396;2023-03-01T17:00:05;6.80;63.00
70366;DHT22;57787;48.216;12.396;2023-03-01T17:02:34;6.70;63.40
70366;DHT22;57787;48.216;12.396;2023-03-01T17:05:02;6.60;63.50
70366;DHT22;57787;48.216;12.396;2023-03-01T17:07:32;6.60;63.70
70366;DHT22;57787;48.216;12.396;2023-03-01T17:10:00;6.50;63.80
70366;DHT22;57787;48.216;12.396;2023-03-01T17:12:27;6.50;63.80
70366;DHT22;57787;48.216;12.396;2023-03-01T17:14:57;6.50;63.90
70366;DHT22;57787;48.216;12.396;2023-03-01T17:17:23;6.40;64.00
70366;DHT22;57787;48.216;12.396;2023-03-01T17:19:50;6.40;64.20
70366;DHT22;57787;48.216;12.396;2023-03-01T17:22:20;6.30;64.30